createdAt,value
2023-05-10T00:01:35.586Z,6.97
2023-05-10T00:04:06.371Z,6.92
2023-05-10T00:06:36.965Z,6.95
2023-05-10T00:09:07.715Z,7.30
2023-05-10T00:11:38.411Z,7.53
2023-05-10T00:14:09.080Z,6.97
2023-05-10T00:16:40.046Z,7.55
2023-05-10T00:19:12.304Z,6.60
2023-05-10T00:21:42.852Z,6.62
2023-05-10T00:24:13.516Z,7.37
2023-05-10T00:26:44.071Z,6.90
2023-05-10T00:29:15.802Z,7.30
2023-05-10T00:31:46.448Z,7.40
2023-05-10T00:34:17.290Z,7.12
2023-05-10T00:36:47.918Z,8.08
2023-05-10T00:39:19.526Z,7.60
2023-05-10T00:41:50.260Z,7.53
2023-05-10T00:44:21.607Z,7.17
2023-05-10T00:46:52.790Z,7.33
2023-05-10T00:49:23.604Z,7.20
2023-05-10T00:51:54.481Z,8.03
2023-05-10T00:54:25.177Z,8.05
2023-05-10T00:56:57.422Z,7.85
2023-05-10T00:59:29.122Z,7.97
2023-05-10T01:02:00.782Z,8.13
2023-05-10T01:04:31.778Z,7.28
2023-05-10T01:07:02.817Z,7.30
2023-05-10T01:09:34.648Z,7.90
2023-05-10T01:12:07.869Z,8.08
2023-05-10T01:14:39.156Z,7.90
2023-05-10T01:17:10.777Z,7.75
2023-05-10T01:19:41.539Z,7.67
2023-05-10T01:22:41.042Z,7.75
2023-05-10T01:25:38.336Z,7.70
2023-05-10T01:28:27.085Z,7.57
2023-05-10T01:31:12.930Z,7.30
2023-05-10T01:33:59.856Z,6.72
2023-05-10T01:36:36.217Z,6.58
2023-05-10T01:39:09.856Z,7.03
2023-05-10T01:41:58.343Z,7.33
2023-05-10T01:44:36.585Z,7.62
2023-05-10T01:47:11.882Z,7.47
2023-05-10T01:49:45.572Z,7.50
2023-05-10T01:52:20.384Z,7.20
2023-05-10T01:55:00.303Z,7.95
2023-05-10T01:57:37.152Z,7.78
2023-05-10T02:00:10.528Z,7.47
2023-05-10T02:02:44.415Z,7.60
2023-05-10T02:05:17.007Z,8.00
2023-05-10T02:07:48.592Z,7.37
2023-05-10T02:10:20.577Z,7.30
2023-05-10T02:12:52.661Z,7.25
2023-05-10T02:15:25.834Z,7.50
2023-05-10T02:17:58.639Z,7.92
2023-05-10T02:20:29.892Z,7.97
2023-05-10T02:23:01.885Z,7.90
2023-05-10T02:25:35.774Z,7.62
2023-05-10T02:28:08.929Z,7.47
2023-05-10T02:30:39.992Z,7.22
2023-05-10T02:33:11.383Z,7.50
2023-05-10T02:35:42.792Z,7.35
2023-05-10T02:38:15.283Z,7.45
2023-05-10T02:40:48.311Z,7.12
2023-05-10T02:43:20.287Z,7.37
2023-05-10T02:45:51.363Z,7.45
2023-05-10T02:48:22.147Z,7.17
2023-05-10T02:50:55.732Z,7.70
2023-05-10T02:53:32.083Z,7.87
2023-05-10T02:56:06.520Z,7.53
2023-05-10T02:58:39.576Z,7.70
2023-05-10T03:01:09.741Z,7.77
2023-05-10T03:03:40.363Z,7.43
2023-05-10T03:06:11.950Z,7.33
2023-05-10T03:08:42.590Z,7.03
2023-05-10T03:11:34.075Z,7.17
2023-05-10T03:14:13.954Z,6.83
2023-05-10T03:16:51.476Z,7.35
2023-05-10T03:19:52.025Z,7.80
2023-05-10T03:22:39.908Z,7.33
2023-05-10T03:25:12.790Z,7.33
2023-05-10T03:27:45.893Z,7.10
2023-05-10T03:30:17.813Z,7.28
2023-05-10T03:32:48.610Z,6.75
2023-05-10T03:35:19.366Z,7.27
2023-05-10T03:37:50.028Z,7.47
2023-05-10T03:40:22.038Z,6.90
2023-05-10T03:42:52.693Z,7.17
2023-05-10T03:45:23.795Z,8.15
2023-05-10T03:47:57.661Z,7.05
2023-05-10T03:50:28.616Z,7.25
2023-05-10T03:52:59.226Z,7.25
2023-05-10T03:55:30.534Z,7.42
2023-05-10T03:58:01.072Z,7.78
2023-05-10T04:00:32.629Z,6.95
2023-05-10T04:03:03.338Z,7.00
2023-05-10T04:05:34.073Z,7.50
2023-05-10T04:08:05.273Z,6.95
2023-05-10T04:10:35.934Z,7.42
2023-05-10T04:13:07.246Z,7.20
2023-05-10T04:15:37.957Z,7.47
2023-05-10T04:18:09.173Z,6.00
2023-05-10T04:20:39.799Z,6.87
2023-05-10T04:23:12.941Z,6.97
2023-05-10T04:25:44.365Z,6.87
2023-05-10T04:28:14.827Z,7.92
2023-05-10T04:30:46.829Z,7.17
2023-05-10T04:33:17.418Z,7.05
2023-05-10T04:35:48.026Z,7.47
2023-05-10T04:38:18.917Z,6.35
2023-05-10T04:40:49.473Z,5.50
2023-05-10T04:43:20.605Z,7.30
2023-05-10T04:45:53.347Z,6.67
2023-05-10T04:48:24.119Z,6.57
2023-05-10T04:50:54.921Z,6.80
2023-05-10T04:53:28.594Z,6.80
2023-05-10T04:55:59.220Z,5.90
2023-05-10T04:58:31.070Z,5.62
2023-05-10T05:01:11.301Z,6.15
2023-05-10T05:03:42.712Z,6.53
2023-05-10T05:06:14.959Z,6.10
2023-05-10T05:08:45.540Z,5.95
2023-05-10T05:11:16.416Z,7.00
2023-05-10T05:13:47.453Z,7.03
2023-05-10T05:16:18.547Z,5.83
2023-05-10T05:18:49.317Z,6.65
2023-05-10T05:21:22.852Z,6.65
2023-05-10T05:23:53.903Z,6.40
2023-05-10T05:26:26.084Z,6.30
2023-05-10T05:28:56.863Z,6.25
2023-05-10T05:31:27.606Z,6.65
2023-05-10T05:33:59.995Z,7.97
2023-05-10T05:36:32.285Z,6.95
2023-05-10T05:39:11.512Z,6.72
2023-05-10T05:41:38.813Z,6.87
2023-05-10T05:44:10.920Z,6.80
2023-05-10T05:46:41.725Z,6.58
2023-05-10T05:49:13.255Z,6.35
2023-05-10T05:51:44.063Z,5.42
2023-05-10T05:54:14.759Z,5.15
2023-05-10T05:56:45.436Z,5.47
2023-05-10T05:59:17.165Z,5.70
2023-05-10T06:01:47.900Z,4.80
2023-05-10T06:04:19.441Z,5.47
2023-05-10T06:06:53.795Z,5.37
2023-05-10T06:09:25.819Z,5.35
2023-05-10T06:11:56.666Z,5.75
2023-05-10T06:14:28.593Z,5.25
2023-05-10T06:17:00.582Z,4.95
2023-05-10T06:19:33.042Z,4.85
2023-05-10T06:22:04.050Z,4.37
2023-05-10T06:24:34.830Z,4.92
2023-05-10T06:27:08.090Z,4.80
2023-05-10T06:29:40.413Z,4.10
2023-05-10T06:32:11.933Z,4.40
2023-05-10T06:34:44.350Z,4.78
2023-05-10T06:37:15.202Z,5.30
2023-05-10T06:39:45.988Z,4.60
2023-05-10T06:42:16.977Z,4.92
2023-05-10T06:44:47.933Z,4.85
2023-05-10T06:47:19.252Z,4.60
2023-05-10T06:49:50.228Z,4.53
2023-05-10T06:52:20.817Z,4.35
2023-05-10T06:54:51.434Z,5.42
2023-05-10T06:57:31.112Z,5.28
2023-05-10T06:59:57.049Z,4.83
2023-05-10T07:02:29.534Z,4.25
2023-05-10T07:05:02.775Z,5.20
2023-05-10T07:07:33.676Z,5.00
2023-05-10T07:10:04.834Z,5.50
2023-05-10T07:12:37.901Z,4.72
2023-05-10T07:15:09.779Z,4.75
2023-05-10T07:17:41.853Z,4.92
2023-05-10T07:20:13.341Z,4.67
2023-05-10T07:22:45.942Z,4.67
2023-05-10T07:25:16.912Z,4.80
2023-05-10T07:27:50.477Z,4.62
2023-05-10T07:30:21.109Z,4.83
2023-05-10T07:32:51.778Z,4.42
2023-05-10T07:35:22.315Z,4.25
2023-05-10T07:37:53.264Z,3.92
2023-05-10T07:40:24.010Z,3.83
2023-05-10T07:42:56.221Z,4.72
2023-05-10T07:45:27.358Z,4.40
2023-05-10T07:47:59.560Z,4.28
2023-05-10T07:50:31.806Z,4.58
2023-05-10T07:53:02.535Z,4.40
2023-05-10T07:55:33.192Z,4.55
2023-05-10T07:58:03.782Z,5.10
2023-05-10T08:00:34.573Z,4.28
2023-05-10T08:03:05.637Z,5.03
2023-05-10T08:05:36.222Z,4.62
2023-05-10T08:08:07.052Z,4.53
2023-05-10T08:10:37.755Z,4.80
2023-05-10T08:13:08.420Z,4.75
2023-05-10T08:15:39.141Z,4.67
2023-05-10T08:18:13.121Z,4.45
2023-05-10T08:20:43.836Z,4.22
2023-05-10T08:23:17.449Z,4.78
2023-05-10T08:25:48.337Z,5.33
2023-05-10T08:28:19.069Z,3.72
2023-05-10T08:30:51.251Z,4.00
2023-05-10T08:33:21.906Z,4.00
2023-05-10T08:35:53.425Z,4.37
2023-05-10T08:38:23.983Z,3.70
2023-05-10T08:41:00.167Z,4.75
2023-05-10T08:43:31.461Z,4.65
2023-05-10T08:46:07.066Z,5.30
2023-05-10T08:48:39.394Z,5.62
2023-05-10T08:51:11.487Z,6.03
2023-05-10T08:53:42.165Z,5.55
2023-05-10T08:56:16.238Z,4.45
2023-05-10T08:58:47.157Z,5.22
2023-05-10T09:01:20.037Z,4.47
2023-05-10T09:03:54.498Z,4.80
2023-05-10T09:06:25.593Z,5.08
2023-05-10T09:08:56.701Z,5.03
2023-05-10T09:11:29.939Z,3.92
2023-05-10T09:14:00.703Z,4.53
2023-05-10T09:16:32.842Z,3.92
2023-05-10T09:19:04.537Z,4.80
2023-05-10T09:21:42.163Z,5.08
2023-05-10T09:24:15.005Z,4.42
2023-05-10T09:26:50.261Z,4.80
2023-05-10T09:29:20.945Z,5.05
2023-05-10T09:31:53.408Z,3.92
2023-05-10T09:34:32.310Z,4.80
2023-05-10T09:37:07.599Z,4.75
2023-05-10T09:39:39.422Z,4.62
2023-05-10T09:42:12.292Z,4.92
2023-05-10T09:44:44.458Z,4.65
2023-05-10T09:47:22.793Z,4.92
2023-05-10T09:49:56.150Z,5.60
2023-05-10T09:52:26.872Z,4.97
2023-05-10T09:54:57.538Z,6.22
2023-05-10T09:57:28.204Z,4.60
2023-05-10T10:00:00.281Z,4.78
2023-05-10T10:02:31.637Z,4.78
2023-05-10T10:05:05.825Z,4.50
2023-05-10T10:07:37.988Z,4.72
2023-05-10T10:10:11.516Z,4.80
2023-05-10T10:12:43.215Z,5.35
2023-05-10T10:15:16.612Z,5.35
2023-05-10T10:17:47.542Z,5.62
2023-05-10T10:20:19.863Z,5.12
2023-05-10T10:22:51.474Z,5.15
2023-05-10T10:25:23.450Z,5.00
2023-05-10T10:27:57.108Z,5.08
2023-05-10T10:30:33.681Z,5.03
2023-05-10T10:33:27.868Z,4.55
2023-05-10T10:35:52.513Z,4.53
2023-05-10T10:38:23.915Z,6.08
2023-05-10T10:41:15.238Z,4.53
2023-05-10T10:43:49.107Z,4.33
2023-05-10T10:46:21.799Z,4.55
2023-05-10T10:49:12.775Z,4.55
2023-05-10T10:51:46.328Z,5.22
2023-05-10T10:54:20.073Z,4.97
2023-05-10T10:56:56.666Z,4.80
2023-05-10T10:59:30.248Z,4.65
2023-05-10T11:02:01.688Z,5.35
2023-05-10T11:04:35.443Z,5.50
2023-05-10T11:07:21.692Z,4.62
2023-05-10T11:09:52.820Z,5.00
2023-05-10T11:12:24.405Z,4.45
2023-05-10T11:14:58.114Z,4.85
2023-05-10T11:17:32.711Z,4.40
2023-05-10T11:20:15.199Z,4.50
2023-05-10T11:22:53.542Z,4.47
2023-05-10T11:25:29.245Z,5.70
2023-05-10T11:28:01.696Z,4.22
2023-05-10T11:30:33.416Z,6.08
2023-05-10T11:33:04.120Z,5.22
2023-05-10T11:35:43.403Z,4.97
2023-05-10T11:38:15.169Z,4.65
2023-05-10T11:40:45.830Z,4.50
2023-05-10T11:43:16.536Z,4.95
2023-05-10T11:45:48.118Z,4.05
2023-05-10T11:48:20.494Z,4.50
2023-05-10T11:50:52.010Z,5.15
2023-05-10T11:53:23.772Z,4.58
2023-05-10T11:55:55.653Z,4.50
2023-05-10T11:58:27.391Z,4.85
2023-05-10T12:00:58.410Z,4.50
2023-05-10T12:03:32.765Z,5.47
2023-05-10T12:06:04.828Z,4.60
2023-05-10T12:08:35.786Z,5.12
2023-05-10T12:11:09.259Z,5.33
2023-05-10T12:13:41.346Z,6.55
2023-05-10T12:16:23.230Z,5.45
2023-05-10T12:18:57.005Z,4.87
2023-05-10T12:21:29.868Z,4.42
2023-05-10T12:24:06.621Z,4.75
2023-05-10T12:26:39.194Z,5.60
2023-05-10T12:29:18.062Z,4.33
2023-05-10T12:31:55.262Z,4.50
2023-05-10T12:34:37.258Z,4.85
2023-05-10T12:37:07.804Z,4.90
2023-05-10T12:39:43.990Z,4.92
2023-05-10T12:42:14.729Z,4.62
2023-05-10T12:44:46.897Z,4.22
2023-05-10T12:47:17.628Z,5.08
2023-05-10T12:49:48.184Z,5.10
2023-05-10T12:52:18.889Z,5.50
2023-05-10T12:54:50.275Z,4.95
2023-05-10T12:57:22.800Z,4.80
2023-05-10T12:59:53.396Z,4.70
2023-05-10T13:02:24.951Z,4.95
2023-05-10T13:04:55.799Z,4.85
2023-05-10T13:07:26.647Z,4.95
2023-05-10T13:09:57.237Z,5.12
2023-05-10T13:12:27.861Z,4.92
2023-05-10T13:14:58.504Z,4.60
2023-05-10T13:17:29.091Z,5.45
2023-05-10T13:19:59.600Z,4.60
2023-05-10T13:22:39.731Z,5.35
2023-05-10T13:25:04.263Z,4.05
2023-05-10T13:27:34.825Z,5.03
2023-05-10T13:30:06.681Z,4.90
2023-05-10T13:32:37.690Z,4.42
2023-05-10T13:35:08.996Z,5.12
2023-05-10T13:37:39.578Z,5.10
2023-05-10T13:40:12.419Z,4.03
2023-05-10T13:42:44.289Z,4.97
2023-05-10T13:45:15.044Z,4.95
2023-05-10T13:47:47.659Z,5.45
2023-05-10T13:50:19.640Z,4.37
2023-05-10T13:52:50.557Z,5.00
2023-05-10T13:55:21.452Z,5.15
2023-05-10T13:57:52.238Z,5.65
2023-05-10T14:00:22.951Z,4.33
2023-05-10T14:02:54.851Z,4.40
2023-05-10T14:05:27.313Z,4.70
2023-05-10T14:07:58.198Z,4.78
2023-05-10T14:10:29.974Z,7.33
2023-05-10T14:13:02.342Z,4.80
2023-05-10T14:15:32.882Z,5.22
2023-05-10T14:18:03.608Z,6.45
2023-05-10T14:20:34.707Z,5.72
2023-05-10T14:23:05.380Z,5.17
2023-05-10T14:25:36.309Z,5.55
2023-05-10T14:28:07.015Z,6.53
2023-05-10T14:30:37.695Z,5.60
2023-05-10T14:33:09.112Z,5.85
2023-05-10T14:35:39.798Z,5.05
2023-05-10T14:38:11.664Z,4.83
2023-05-10T14:40:42.849Z,4.03
2023-05-10T14:43:13.416Z,4.28
2023-05-10T14:45:44.395Z,3.98
2023-05-10T14:48:16.723Z,4.65
2023-05-10T14:50:47.897Z,5.28
2023-05-10T14:53:19.088Z,5.08
2023-05-10T14:55:50.220Z,4.80
2023-05-10T14:58:21.710Z,4.75
2023-05-10T15:00:53.852Z,4.80
2023-05-10T15:03:25.192Z,4.87
2023-05-10T15:05:58.069Z,5.87
2023-05-10T15:08:28.748Z,5.62
2023-05-10T15:11:00.046Z,5.50
2023-05-10T15:13:30.601Z,4.75
2023-05-10T15:16:01.469Z,4.55
2023-05-10T15:18:32.228Z,4.08
2023-05-10T15:21:02.779Z,4.50
2023-05-10T15:23:33.342Z,5.10
2023-05-10T15:26:04.035Z,4.87
2023-05-10T15:28:34.757Z,5.95
2023-05-10T15:31:05.415Z,5.17
2023-05-10T15:33:36.186Z,3.98
2023-05-10T15:36:07.568Z,4.97
2023-05-10T15:38:38.259Z,5.47
2023-05-10T15:41:08.863Z,4.75
2023-05-10T15:43:39.448Z,4.20
2023-05-10T15:46:10.000Z,4.42
2023-05-10T15:48:40.812Z,4.85
2023-05-10T15:51:11.336Z,4.35
2023-05-10T15:53:52.659Z,4.78
2023-05-10T15:56:14.585Z,5.45
2023-05-10T15:58:45.565Z,6.97
2023-05-10T16:01:18.160Z,6.17
2023-05-10T16:03:48.844Z,6.25
2023-05-10T16:06:19.447Z,4.67
2023-05-10T16:08:50.877Z,4.80
2023-05-10T16:11:24.058Z,5.17
2023-05-10T16:13:55.710Z,4.75
2023-05-10T16:16:26.577Z,4.78
2023-05-10T16:19:00.558Z,5.58
2023-05-10T16:21:34.364Z,5.42
2023-05-10T16:24:05.913Z,5.22
2023-05-10T16:26:38.218Z,5.17
2023-05-10T16:29:11.819Z,5.65
2023-05-10T16:31:43.371Z,6.05
2023-05-10T16:34:14.118Z,5.62
2023-05-10T16:36:46.412Z,7.03
2023-05-10T16:39:17.077Z,6.90
2023-05-10T16:41:47.763Z,7.85
2023-05-10T16:44:20.217Z,7.22
2023-05-10T16:46:51.053Z,6.85
2023-05-10T16:49:27.082Z,7.40
2023-05-10T16:51:57.762Z,7.85
2023-05-10T16:54:30.249Z,7.37
2023-05-10T16:57:02.126Z,7.35
2023-05-10T16:59:32.874Z,7.72
2023-05-10T17:02:03.552Z,7.25
2023-05-10T17:04:34.211Z,8.38
2023-05-10T17:07:04.975Z,8.18
2023-05-10T17:09:35.879Z,7.53
2023-05-10T17:12:07.072Z,7.53
2023-05-10T17:14:38.863Z,8.38
2023-05-10T17:17:10.038Z,7.08
2023-05-10T17:19:42.304Z,8.58
2023-05-10T17:22:14.345Z,7.92
2023-05-10T17:24:46.082Z,8.53
2023-05-10T17:27:16.764Z,9.15
2023-05-10T17:29:47.485Z,8.13
2023-05-10T17:32:18.051Z,8.80
2023-05-10T17:34:48.741Z,9.13
2023-05-10T17:37:19.391Z,8.28
2023-05-10T17:39:49.967Z,9.35
2023-05-10T17:42:20.852Z,9.40
2023-05-10T17:44:52.933Z,9.23
2023-05-10T17:47:24.626Z,9.18
2023-05-10T17:49:55.347Z,9.90
2023-05-10T17:52:26.155Z,8.18
2023-05-10T17:54:56.729Z,8.78
2023-05-10T17:57:27.380Z,8.55
2023-05-10T17:59:57.946Z,8.35
2023-05-10T18:02:30.183Z,10.03
2023-05-10T18:05:01.752Z,8.83
2023-05-10T18:07:32.732Z,8.08
2023-05-10T18:10:03.407Z,9.75
2023-05-10T18:12:33.922Z,10.28
2023-05-10T18:15:06.277Z,9.58
2023-05-10T18:17:36.885Z,11.80
2023-05-10T18:20:08.630Z,8.55
2023-05-10T18:22:39.352Z,10.93
2023-05-10T18:25:11.208Z,8.60
2023-05-10T18:27:42.362Z,8.48
2023-05-10T18:30:15.143Z,8.35
2023-05-10T18:32:46.627Z,8.70
2023-05-10T18:35:17.356Z,10.13
2023-05-10T18:37:48.786Z,9.38
2023-05-10T18:40:19.583Z,8.53
2023-05-10T18:42:50.537Z,9.28
2023-05-10T18:45:21.207Z,9.15
2023-05-10T18:47:52.138Z,7.90
2023-05-10T18:50:22.799Z,9.50
2023-05-10T18:52:53.918Z,9.53
2023-05-10T18:55:25.930Z,8.05
2023-05-10T18:58:01.811Z,8.35
2023-05-10T19:00:32.398Z,8.23
2023-05-10T19:03:03.052Z,10.60
2023-05-10T19:05:33.735Z,8.65
2023-05-10T19:08:04.430Z,9.50
2023-05-10T19:10:35.032Z,9.15
2023-05-10T19:13:07.744Z,8.50
2023-05-10T19:15:41.470Z,9.03
2023-05-10T19:18:11.989Z,9.55
2023-05-10T19:20:42.690Z,9.83
2023-05-10T19:23:14.021Z,9.55
2023-05-10T19:25:47.388Z,9.45
2023-05-10T19:28:19.233Z,8.88
2023-05-10T19:30:50.340Z,8.70
2023-05-10T19:33:22.719Z,11.57
2023-05-10T19:35:54.700Z,10.43
2023-05-10T19:38:27.137Z,8.65
2023-05-10T19:40:58.567Z,10.53
2023-05-10T19:43:35.928Z,10.35
2023-05-10T19:46:09.088Z,9.93
2023-05-10T19:48:39.773Z,10.75
2023-05-10T19:51:10.531Z,11.03
2023-05-10T19:53:42.833Z,11.08
2023-05-10T19:56:14.375Z,11.40
2023-05-10T19:58:45.019Z,10.65
2023-05-10T20:01:16.488Z,9.73
2023-05-10T20:03:47.506Z,10.03
2023-05-10T20:06:18.156Z,10.40
2023-05-10T20:08:48.701Z,10.55
2023-05-10T20:11:21.533Z,10.38
2023-05-10T20:13:53.152Z,11.97
2023-05-10T20:16:27.104Z,11.55
2023-05-10T20:18:56.867Z,10.35
2023-05-10T20:21:29.031Z,10.50
2023-05-10T20:23:59.735Z,9.88
2023-05-10T20:26:31.192Z,10.55
2023-05-10T20:29:01.866Z,12.50
2023-05-10T20:31:33.113Z,11.88
2023-05-10T20:34:03.798Z,11.35
2023-05-10T20:36:34.523Z,11.33
2023-05-10T20:39:05.419Z,11.40
2023-05-10T20:41:35.915Z,11.88
2023-05-10T20:44:06.789Z,12.25
2023-05-10T20:46:37.795Z,11.33
2023-05-10T20:49:10.471Z,12.63
2023-05-10T20:51:41.006Z,11.93
2023-05-10T20:54:13.296Z,11.43
2023-05-10T20:56:44.233Z,11.68
2023-05-10T20:59:15.662Z,11.97
2023-05-10T21:01:46.580Z,11.85
2023-05-10T21:04:18.631Z,11.57
2023-05-10T21:06:49.466Z,12.47
2023-05-10T21:09:22.599Z,12.07
2023-05-10T21:11:52.652Z,12.00
2023-05-10T21:14:24.069Z,12.18
2023-05-10T21:16:54.670Z,11.95
2023-05-10T21:19:25.242Z,12.00
2023-05-10T21:21:57.209Z,12.45
2023-05-10T21:24:28.088Z,12.33
2023-05-10T21:26:58.801Z,12.30
2023-05-10T21:29:29.500Z,12.20
2023-05-10T21:32:00.097Z,11.48
2023-05-10T21:34:31.163Z,11.65
2023-05-10T21:37:01.978Z,12.43
2023-05-10T21:39:32.666Z,12.05
2023-05-10T21:42:03.858Z,11.80
2023-05-10T21:44:34.616Z,12.63
2023-05-10T21:47:07.383Z,10.60
2023-05-10T21:49:39.503Z,11.22
2023-05-10T21:52:10.391Z,10.65
2023-05-10T21:54:42.064Z,11.83
2023-05-10T21:57:12.608Z,12.25
2023-05-10T21:59:43.188Z,12.40
2023-05-10T22:02:13.761Z,12.23
2023-05-10T22:04:44.417Z,11.85
2023-05-10T22:07:16.900Z,12.13
2023-05-10T22:09:47.573Z,12.05
2023-05-10T22:12:20.407Z,12.75
2023-05-10T22:15:06.493Z,11.57
2023-05-10T22:17:23.408Z,11.12
2023-05-10T22:19:53.952Z,12.47
2023-05-10T22:22:24.505Z,11.97
2023-05-10T22:24:56.140Z,11.28
2023-05-10T22:27:26.875Z,11.63
2023-05-10T22:29:58.162Z,11.28
2023-05-10T22:32:30.216Z,12.23
2023-05-10T22:35:00.794Z,11.30
2023-05-10T22:37:31.596Z,11.20
2023-05-10T22:40:02.317Z,10.78
2023-05-10T22:42:34.602Z,12.63
2023-05-10T22:45:07.286Z,11.63
2023-05-10T22:47:37.961Z,12.45
2023-05-10T22:50:10.777Z,13.05
2023-05-10T22:52:41.446Z,14.20
2023-05-10T22:55:13.322Z,12.28
2023-05-10T22:57:44.005Z,11.88
2023-05-10T23:00:15.573Z,11.43
2023-05-10T23:02:46.399Z,12.65
2023-05-10T23:05:17.316Z,12.33
2023-05-10T23:07:49.601Z,11.80
2023-05-10T23:10:21.941Z,11.03
2023-05-10T23:12:52.670Z,11.15
2023-05-10T23:15:23.200Z,10.53
2023-05-10T23:17:53.964Z,11.40
2023-05-10T23:20:24.815Z,11.22
2023-05-10T23:22:56.393Z,12.13
2023-05-10T23:25:27.015Z,12.88
2023-05-10T23:27:57.595Z,13.68
2023-05-10T23:30:28.243Z,12.13
2023-05-10T23:32:59.003Z,12.07
2023-05-10T23:35:30.567Z,12.47
2023-05-10T23:38:01.204Z,11.50
2023-05-10T23:40:31.758Z,13.35
2023-05-10T23:43:03.604Z,13.93
2023-05-10T23:45:34.538Z,14.68
2023-05-10T23:48:08.056Z,16.55
2023-05-10T23:50:38.644Z,16.07
2023-05-10T23:53:10.633Z,14.03
2023-05-10T23:55:41.437Z,14.75
2023-05-10T23:58:12.659Z,14.58
